Time;durP1;ratioP1;P1;durP2;ratioP2;P2;SDS_P1;SDS_P2;PMS_P1;PMS_P2;Temp;Humidity;BMP_temperature;BMP_pressure;BME280_temperature;BME280_humidity;BME280_pressure;Samples;Min_cycle;Max_cycle;Signal;HPM_P1;HPM_P2
2022/05/24 00:01:14;;;;;;;6.65;3.83;;;;;;;16.10;100.00;95000.66;4987414;28;20052;-61
2022/05/24 00:03:40;;;;;;;6.07;3.90;;;;;;;16.09;100.00;94993.72;4988026;28;20058;-60
2022/05/24 00:06:06;;;;;;;4.82;3.85;;;;;;;15.99;100.00;94987.94;4987976;28;20102;-60
2022/05/24 00:08:31;;;;;;;3.30;3.00;;;;;;;15.89;100.00;94991.72;4979444;28;20038;-61
2022/05/24 00:10:56;;;;;;;5.38;3.40;;;;;;;15.96;100.00;94988.31;4987107;28;20497;-61
2022/05/24 00:13:22;;;;;;;3.60;3.15;;;;;;;15.93;100.00;94984.19;4982699;28;20065;-61
2022/05/24 00:15:48;;;;;;;3.58;3.10;;;;;;;15.88;100.00;94989.25;4981945;28;20038;-60
2022/05/24 00:18:19;;;;;;;3.75;3.35;;;;;;;15.82;100.00;94995.34;4979303;28;20030;-61
2022/05/24 00:20:49;;;;;;;3.75;3.05;;;;;;;15.76;100.00;94996.91;4984361;28;20098;-61
2022/05/24 00:23:14;;;;;;;5.55;3.30;;;;;;;15.64;100.00;94993.13;4984112;28;20033;-60
2022/05/24 00:25:43;;;;;;;4.80;2.92;;;;;;;15.51;100.00;94991.16;4980894;28;20438;-61
2022/05/24 00:28:09;;;;;;;4.35;2.78;;;;;;;15.47;100.00;94980.94;4982090;28;20101;-61
2022/05/24 00:30:35;;;;;;;3.28;2.90;;;;;;;15.55;100.00;94973.84;4989425;28;20044;-61
2022/05/24 00:33:02;;;;;;;4.57;2.65;;;;;;;15.58;100.00;94978.78;4982089;28;20085;-61
2022/05/24 00:35:27;;;;;;;5.53;2.88;;;;;;;15.63;100.00;94989.66;4978239;28;20019;-61
2022/05/24 00:37:53;;;;;;;3.58;2.63;;;;;;;15.59;100.00;94989.22;4980833;28;20701;-61
2022/05/24 00:40:46;;;;;;;4.57;2.80;;;;;;;15.61;100.00;94991.69;4983890;28;20030;-60
2022/05/24 00:43:37;;;;;;;2.88;2.67;;;;;;;15.62;100.00;95001.28;4986160;28;20034;-61
2022/05/24 00:46:15;;;;;;;6.03;3.00;;;;;;;15.53;100.00;95010.38;4986082;28;20042;-61
2022/05/24 00:49:06;;;;;;;4.13;2.63;;;;;;;15.51;100.00;95012.38;4986314;28;20039;-61
2022/05/24 00:51:37;;;;;;;9.65;2.33;;;;;;;15.45;100.00;95004.19;4984257;28;20081;-61
2022/05/24 00:54:03;;;;;;;5.60;3.00;;;;;;;15.37;100.00;95001.66;4984228;28;20050;-61
2022/05/24 00:56:45;;;;;;;4.63;2.47;;;;;;;15.30;100.00;94998.09;4982069;28;20026;-61
2022/05/24 00:59:20;;;;;;;6.13;2.72;;;;;;;15.28;100.00;95008.91;4979890;28;20157;-61
2022/05/24 01:01:48;;;;;;;6.57;3.20;;;;;;;15.26;100.00;95015.41;4983585;28;20069;-61
2022/05/24 01:04:17;;;;;;;12.85;2.95;;;;;;;15.34;100.00;95007.31;4985091;28;20372;-61
2022/05/24 01:06:43;;;;;;;2.85;2.65;;;;;;;15.32;100.00;95004.03;4981964;28;20030;-61
2022/05/24 01:09:17;;;;;;;4.43;2.53;;;;;;;15.25;100.00;95013.75;4980573;28;20433;-61
2022/05/24 01:11:46;;;;;;;4.95;2.65;;;;;;;15.21;100.00;95017.81;4983525;28;20054;-61
2022/05/24 01:14:15;;;;;;;5.03;2.00;;;;;;;15.15;100.00;95030.81;4985712;28;20512;-61
2022/05/24 01:16:41;;;;;;;3.08;2.40;;;;;;;15.17;100.00;95038.56;4982615;28;20065;-60
2022/05/24 01:19:13;;;;;;;6.03;2.90;;;;;;;15.15;100.00;95036.13;4979598;28;20108;-61
2022/05/24 01:21:39;;;;;;;8.60;2.50;;;;;;;15.13;100.00;95032.78;4987601;28;20033;-61
2022/05/24 01:24:33;;;;;;;2.45;2.25;;;;;;;15.15;100.00;95028.16;4986743;28;20022;-60
2022/05/24 01:26:59;;;;;;;4.78;2.47;;;;;;;15.12;100.00;95041.75;4980131;28;20038;-61
2022/05/24 01:29:26;;;;;;;8.25;2.70;;;;;;;15.07;100.00;95043.34;4983400;28;20035;-60
2022/05/24 01:37:22;;;;;;;4.93;2.80;;;;;;;15.04;100.00;95049.84;4983467;28;20304;-60
2022/05/24 01:39:52;;;;;;;3.90;2.63;;;;;;;15.06;100.00;95045.16;4982948;28;20021;-61
2022/05/24 01:42:18;;;;;;;7.45;3.00;;;;;;;15.03;100.00;95056.13;4985112;28;20026;-61
2022/05/24 01:45:06;;;;;;;4.65;2.80;;;;;;;15.01;100.00;95055.50;4988581;28;20073;-61
2022/05/24 01:47:34;;;;;;;2.63;2.10;;;;;;;14.98;100.00;95058.53;4983563;28;20050;-60
2022/05/24 01:50:03;;;;;;;8.10;2.50;;;;;;;15.01;100.00;95055.50;4977691;28;20026;-60
2022/05/24 01:52:36;;;;;;;5.90;2.33;;;;;;;15.01;100.00;95055.50;4982242;28;20031;-60
2022/05/24 01:55:14;;;;;;;7.35;2.30;;;;;;;15.01;100.00;95055.50;4980523;28;20096;-61
2022/05/24 01:57:45;;;;;;;3.80;2.33;;;;;;;14.92;100.00;95059.25;4977010;28;20081;-61
2022/05/24 02:00:13;;;;;;;2.28;2.08;;;;;;;14.95;100.00;95057.06;4980053;28;20030;-60
2022/05/24 02:02:38;;;;;;;3.83;2.33;;;;;;;14.97;100.00;95059.53;4987708;28;20034;-61
2022/05/24 02:05:05;;;;;;;6.13;2.40;;;;;;;14.96;100.00;95057.91;4982856;28;20164;-61
2022/05/24 02:07:32;;;;;;;3.13;2.20;;;;;;;14.94;100.00;95058.06;4982770;28;20042;-60
2022/05/24 02:09:57;;;;;;;8.88;2.60;;;;;;;14.95;100.00;95065.00;4983072;28;20022;-60
2022/05/24 02:12:32;;;;;;;3.13;2.40;;;;;;;14.97;100.00;95070.16;4983006;28;20065;-60
2022/05/24 02:15:00;;;;;;;2.72;2.45;;;;;;;14.95;100.00;95066.84;4980564;28;20026;-60
2022/05/24 02:17:47;;;;;;;7.88;2.67;;;;;;;14.88;100.00;95072.88;4984694;28;20057;-61
2022/05/24 02:20:17;;;;;;;6.30;2.45;;;;;;;14.75;100.00;95068.22;4978107;28;20038;-60
2022/05/24 02:22:46;;;;;;;3.17;2.08;;;;;;;14.66;100.00;95079.91;4983788;28;20030;-60
2022/05/24 02:25:18;;;;;;;4.15;2.15;;;;;;;14.61;100.00;95083.09;4983060;28;20034;-60
2022/05/24 02:27:45;;;;;;;3.05;2.33;;;;;;;14.61;100.00;95080.44;4987196;28;20031;-60
2022/05/24 02:30:17;;;;;;;5.57;2.50;;;;;;;14.66;100.00;95085.19;4983450;28;20033;-61
2022/05/24 02:32:43;;;;;;;2.38;2.00;;;;;;;14.69;100.00;95086.63;4985948;28;20403;-60
2022/05/24 02:35:09;;;;;;;4.22;2.30;;;;;;;14.68;100.00;95088.47;4979638;28;20030;-61
2022/05/24 02:37:35;;;;;;;4.82;2.08;;;;;;;14.68;100.00;95090.28;4982027;28;20034;-61
2022/05/24 02:42:44;;;;;;;2.97;1.98;;;;;;;14.66;100.00;95082.53;4984164;28;20049;-60
2022/05/24 02:45:09;;;;;;;2.78;2.33;;;;;;;14.63;100.00;95084.72;4979661;28;20026;-61
2022/05/24 02:47:35;;;;;;;3.30;2.08;;;;;;;14.53;100.00;95083.19;4983773;28;20117;-61
2022/05/24 02:50:00;;;;;;;4.43;2.47;;;;;;;14.48;100.00;95082.91;4980390;28;20038;-60
2022/05/24 02:52:25;;;;;;;4.50;2.10;;;;;;;14.56;100.00;95085.47;4986863;28;20117;-60
2022/05/24 02:54:51;;;;;;;5.25;2.58;;;;;;;14.62;100.00;95091.88;4983786;28;20528;-61
2022/05/24 02:57:16;;;;;;;3.05;2.30;;;;;;;14.60;100.00;95092.03;4978557;28;20030;-61
2022/05/24 02:59:42;;;;;;;3.47;2.47;;;;;;;14.58;100.00;95088.75;4979754;28;20486;-61
2022/05/24 03:02:07;;;;;;;4.75;2.20;;;;;;;14.64;100.00;95084.56;4977341;28;20023;-61
2022/05/24 03:04:34;;;;;;;5.95;2.13;;;;;;;14.66;100.00;95090.50;4988368;28;20081;-61
2022/05/24 03:09:43;;;;;;;3.63;2.20;;;;;;;14.64;100.00;95089.84;4985303;28;20029;-61
2022/05/24 03:14:55;;;;;;;2.67;2.25;;;;;;;14.56;100.00;95093.41;4977362;28;20045;-60
2022/05/24 03:17:22;;;;;;;3.03;2.10;;;;;;;14.46;100.00;95106.06;4980368;28;20034;-60
2022/05/24 03:19:48;;;;;;;5.15;2.22;;;;;;;14.42;100.00;95103.00;4983970;28;20026;-61
2022/05/24 03:22:14;;;;;;;5.55;2.05;;;;;;;14.51;100.00;95102.91;4987283;28;20026;-60
2022/05/24 03:24:40;;;;;;;5.55;2.40;;;;;;;14.57;100.00;95103.00;4983617;28;20449;-61
2022/05/24 03:27:11;;;;;;;6.10;2.60;;;;;;;14.58;100.00;95099.34;4985377;28;20038;-60
2022/05/24 03:29:38;;;;;;;4.97;2.55;;;;;;;14.57;100.00;95091.56;4983089;28;20046;-60
2022/05/24 03:32:05;;;;;;;7.07;2.13;;;;;;;14.57;100.00;95094.22;4982132;28;20026;-60
2022/05/24 03:34:30;;;;;;;3.20;2.05;;;;;;;14.57;100.00;95091.56;4980619;28;20031;-60
2022/05/24 03:36:55;;;;;;;3.28;2.25;;;;;;;14.61;100.00;95095.53;4988130;28;20092;-60
2022/05/24 03:39:21;;;;;;;5.28;1.90;;;;;;;14.56;100.00;95101.34;4983033;28;20030;-60
2022/05/24 03:41:47;;;;;;;2.67;2.35;;;;;;;14.47;100.00;95094.47;4976883;28;20093;-60
2022/05/24 03:44:12;;;;;;;5.55;2.50;;;;;;;14.48;100.00;95101.44;4972427;28;20118;-61
2022/05/24 03:46:38;;;;;;;3.47;2.13;;;;;;;14.48;100.00;95098.81;4974451;28;20101;-61
2022/05/24 03:49:04;;;;;;;2.80;2.15;;;;;;;14.51;100.00;95097.59;4976398;28;20042;-61
2022/05/24 03:51:30;;;;;;;4.47;2.50;;;;;;;14.53;100.00;95098.25;4976650;28;20027;-61
2022/05/24 03:53:55;;;;;;;4.60;1.90;;;;;;;14.56;100.00;95104.00;4987599;28;20046;-61
2022/05/24 03:56:21;;;;;;;2.80;2.38;;;;;;;14.47;100.00;95111.22;4983665;28;20041;-60
2022/05/24 03:58:46;;;;;;;2.53;2.22;;;;;;;14.42;100.00;95107.44;4985654;28;20050;-61
2022/05/24 04:01:12;;;;;;;2.47;2.28;;;;;;;14.35;100.00;95106.53;4982765;28;20114;-61
2022/05/24 04:03:37;;;;;;;2.72;2.25;;;;;;;14.37;100.00;95102.72;4985280;28;20022;-61
2022/05/24 04:06:03;;;;;;;2.50;2.28;;;;;;;14.30;100.00;95112.34;4984663;28;20061;-61
2022/05/24 04:08:29;;;;;;;4.18;2.30;;;;;;;14.32;100.00;95108.53;4984682;28;20498;-61
2022/05/24 04:11:10;;;;;;;5.30;2.33;;;;;;;14.38;100.00;95106.16;4981922;28;20033;-61
2022/05/24 04:13:37;;;;;;;4.65;2.08;;;;;;;14.47;100.00;95105.06;4984592;28;20030;-61
2022/05/24 04:16:03;;;;;;;5.30;2.13;;;;;;;14.45;100.00;95099.97;4978260;28;20037;-61
2022/05/24 04:18:29;;;;;;;4.13;2.40;;;;;;;14.51;100.00;95102.91;4981763;28;20066;-61
2022/05/24 04:20:55;;;;;;;2.60;2.40;;;;;;;14.52;100.00;95105.38;4986430;28;20057;-61
2022/05/24 04:23:23;;;;;;;3.08;2.80;;;;;;;14.45;100.00;95115.03;4980008;28;20023;-61
2022/05/24 04:25:49;;;;;;;4.97;2.50;;;;;;;14.40;100.00;95122.69;4991061;28;20026;-61
2022/05/24 04:28:18;;;;;;;5.75;2.20;;;;;;;14.41;100.00;95119.03;4985622;28;20542;-61
2022/05/24 04:30:44;;;;;;;4.18;2.38;;;;;;;14.41;100.00;95122.53;4987793;28;20065;-60
2022/05/24 04:33:10;;;;;;;3.50;2.25;;;;;;;14.46;100.00;95129.91;4981513;28;20022;-61
2022/05/24 04:35:35;;;;;;;4.70;2.50;;;;;;;14.50;100.00;95125.09;4979175;28;20410;-60
2022/05/24 04:38:00;;;;;;;4.30;2.08;;;;;;;14.63;100.00;95116.50;4983086;28;20101;-61
2022/05/24 04:43:10;;;;;;;4.65;2.10;;;;;;;14.57;100.00;95128.66;4980332;28;20062;-61
2022/05/24 04:45:36;;;;;;;2.97;2.53;;;;;;;14.57;100.00;95128.66;4982468;28;20030;-60
2022/05/24 04:48:02;;;;;;;3.42;2.72;;;;;;;14.59;100.00;95132.78;4985946;28;20481;-61
2022/05/24 04:50:27;;;;;;;6.03;2.80;;;;;;;14.54;100.00;95134.31;4989484;28;20414;-61
2022/05/24 04:52:52;;;;;;;4.30;2.75;;;;;;;14.52;100.00;95131.88;4977035;28;20038;-61
2022/05/24 04:55:18;;;;;;;4.90;2.35;;;;;;;14.46;100.00;95135.22;4983314;28;20536;-61
2022/05/24 04:57:44;;;;;;;2.70;2.30;;;;;;;14.47;100.00;95134.19;4984683;28;20027;-60
2022/05/24 05:00:14;;;;;;;5.30;2.60;;;;;;;14.47;100.00;95140.34;4982949;28;20080;-61
2022/05/24 05:02:41;;;;;;;6.22;2.30;;;;;;;14.40;100.00;95143.88;4976311;28;20478;-61
2022/05/24 05:05:07;;;;;;;4.38;2.45;;;;;;;14.40;100.00;95134.13;4980974;28;20516;-60
2022/05/24 05:07:33;;;;;;;6.25;2.55;;;;;;;14.43;100.00;95146.16;4982436;28;20039;-61
2022/05/24 05:09:59;;;;;;;2.85;2.30;;;;;;;14.40;100.00;95149.19;4990659;28;20051;-61
2022/05/24 05:12:26;;;;;;;6.43;2.17;;;;;;;14.31;100.00;95164.31;4982655;28;20109;-61
2022/05/24 05:14:52;;;;;;;7.70;2.17;;;;;;;14.36;100.00;95166.44;4979810;28;20037;-61
2022/05/24 05:17:18;;;;;;;3.33;2.33;;;;;;;14.28;100.00;95167.31;4982751;28;20034;-61
2022/05/24 05:19:47;;;;;;;4.85;2.50;;;;;;;14.41;100.00;95172.00;4983002;28;20743;-61
2022/05/24 05:22:12;;;;;;;4.13;2.35;;;;;;;14.36;100.00;95174.38;4979785;28;20024;-62
2022/05/24 05:24:38;;;;;;;6.88;2.53;;;;;;;14.37;100.00;95190.09;4984865;28;20580;-62
2022/05/24 05:27:04;;;;;;;3.55;1.80;;;;;;;14.12;100.00;95194.75;4987614;28;20026;-62
2022/05/24 05:32:20;;;;;;;2.53;1.63;;;;;;;13.74;100.00;95208.69;4978734;28;20117;-61
2022/05/24 05:34:47;;;;;;;3.38;1.88;;;;;;;13.69;100.00;95208.38;4984006;28;20055;-61
2022/05/24 05:37:12;;;;;;;3.03;2.00;;;;;;;13.65;98.70;95205.28;4982670;28;20050;-61
2022/05/24 05:39:38;;;;;;;4.95;1.58;;;;;;;13.51;98.45;95214.75;4980739;28;20034;-61
2022/05/24 05:42:04;;;;;;;2.13;1.67;;;;;;;13.30;98.52;95220.56;4980673;28;20394;-62
2022/05/24 05:44:29;;;;;;;6.03;1.40;;;;;;;13.22;98.21;95225.91;4981920;28;20517;-61
2022/05/24 05:46:55;;;;;;;5.15;1.73;;;;;;;12.99;99.13;95231.91;4976360;28;20026;-60
2022/05/24 05:49:21;;;;;;;3.47;1.30;;;;;;;12.83;99.54;95230.13;4983173;28;20026;-60
2022/05/24 05:51:46;;;;;;;2.25;1.35;;;;;;;12.71;99.98;95235.72;4980655;28;20023;-60
2022/05/24 05:54:12;;;;;;;3.97;1.25;;;;;;;12.67;100.00;95236.22;4979651;28;20050;-61
2022/05/24 05:56:40;;;;;;;5.90;1.30;;;;;;;12.58;100.00;95238.88;4984054;28;20422;-60
2022/05/24 05:59:05;;;;;;;1.35;1.25;;;;;;;12.58;100.00;95241.50;4976053;28;20119;-60
2022/05/24 06:01:31;;;;;;;12.45;1.75;;;;;;;12.45;100.00;95251.72;4977440;28;20105;-60
2022/05/24 06:03:57;;;;;;;1.15;1.08;;;;;;;12.30;100.00;95255.03;4980558;28;20073;-59
2022/05/24 06:06:26;;;;;;;5.35;1.20;;;;;;;12.25;100.00;95256.50;4983710;28;20027;-60
2022/05/24 06:08:51;;;;;;;5.60;1.35;;;;;;;12.35;100.00;95259.81;4983055;28;20030;-60
2022/05/24 06:11:17;;;;;;;5.63;1.25;;;;;;;12.28;100.00;95257.03;4978761;28;20037;-60
2022/05/24 06:13:43;;;;;;;5.88;1.30;;;;;;;12.24;100.00;95266.22;4982038;28;20532;-60
2022/05/24 06:16:10;;;;;;;2.70;1.50;;;;;;;12.29;100.00;95271.03;4980097;28;20037;-60
2022/05/24 06:18:36;;;;;;;8.73;1.45;;;;;;;12.24;100.00;95262.78;4980414;28;20536;-60
2022/05/24 06:21:02;;;;;;;4.05;1.55;;;;;;;12.19;100.00;95276.44;4979322;28;20498;-61
2022/05/24 06:23:27;;;;;;;7.10;1.40;;;;;;;12.14;100.00;95286.69;4981607;28;20072;-61
2022/05/24 06:25:53;;;;;;;8.38;1.30;;;;;;;12.07;100.00;95277.75;4983242;28;20452;-60
2022/05/24 06:28:18;;;;;;;3.42;1.10;;;;;;;12.14;100.00;95281.41;4983229;28;20035;-61
2022/05/24 06:30:44;;;;;;;3.42;1.50;;;;;;;12.17;100.00;95289.81;4986001;28;20085;-61
2022/05/24 06:33:11;;;;;;;3.33;1.30;;;;;;;12.38;100.00;95287.69;4979521;28;20576;-60
2022/05/24 06:35:38;;;;;;;4.57;1.40;;;;;;;12.46;100.00;95283.25;4977861;28;20033;-60
2022/05/24 06:38:03;;;;;;;2.15;1.05;;;;;;;12.39;100.00;95286.72;4986553;28;20141;-60
2022/05/24 06:40:28;;;;;;;1.30;1.17;;;;;;;12.31;100.00;95287.53;4989618;28;20042;-60
2022/05/24 06:42:54;;;;;;;5.40;1.13;;;;;;;12.32;100.00;95292.66;4982266;28;20093;-61
2022/05/24 06:45:19;;;;;;;1.02;0.90;;;;;;;12.36;100.00;95284.41;4979707;28;20077;-60
2022/05/24 06:47:45;;;;;;;1.00;1.00;;;;;;;12.30;99.23;95291.16;4984248;28;20732;-60
2022/05/24 06:50:12;;;;;;;7.60;2.25;;;;;;;12.30;98.50;95291.16;4986783;28;20030;-61
2022/05/24 06:52:38;;;;;;;1.20;1.17;;;;;;;12.35;99.16;95291.47;4976186;28;20026;-61
2022/05/24 06:55:05;;;;;;;1.90;1.20;;;;;;;12.37;98.66;95297.41;4978793;28;20519;-61
2022/05/24 06:57:31;;;;;;;4.28;2.22;;;;;;;12.43;97.18;95295.94;4985779;28;20386;-61
2022/05/24 07:02:40;;;;;;;1.30;0.88;;;;;;;12.37;93.64;95301.91;4981408;28;20042;-61
2022/05/24 07:05:06;;;;;;;2.55;1.10;;;;;;;12.38;95.42;95298.25;4979247;28;20528;-61
2022/05/24 07:07:33;;;;;;;1.27;1.05;;;;;;;12.48;95.05;95304.19;4980735;28;20108;-61
2022/05/24 07:09:59;;;;;;;1.92;1.40;;;;;;;12.53;94.66;95294.00;4984129;28;20027;-61
2022/05/24 07:12:26;;;;;;;2.33;0.88;;;;;;;12.66;94.21;95295.31;4985408;28;20394;-61
2022/05/24 07:14:51;;;;;;;1.02;1.00;;;;;;;12.82;93.96;95295.31;4982498;28;20026;-61
2022/05/24 07:17:17;;;;;;;4.57;0.98;;;;;;;13.01;92.16;95290.69;4977422;28;20034;-61
2022/05/24 07:19:44;;;;;;;1.95;0.88;;;;;;;13.17;90.57;95288.03;4986216;28;20027;-62
2022/05/24 07:22:10;;;;;;;0.95;0.90;;;;;;;13.29;90.89;95287.66;4984334;28;20026;-62
2022/05/24 07:24:36;;;;;;;1.00;1.00;;;;;;;13.50;90.15;95292.44;4981725;28;20088;-61
2022/05/24 07:27:04;;;;;;;0.90;0.90;;;;;;;13.74;87.33;95291.50;4986814;28;20481;-61
2022/05/24 07:29:33;;;;;;;4.45;1.08;;;;;;;13.95;86.99;95282.16;4980908;28;20022;-61
2022/05/24 07:31:58;;;;;;;2.83;0.80;;;;;;;14.01;85.73;95286.75;4983630;28;20375;-62
2022/05/24 07:34:23;;;;;;;0.65;0.65;;;;;;;14.03;84.48;95297.19;4980905;28;20034;-61
2022/05/24 07:36:49;;;;;;;0.95;0.95;;;;;;;13.93;85.29;95292.09;4985114;28;20473;-62
2022/05/24 07:39:14;;;;;;;0.65;0.65;;;;;;;13.82;82.70;95292.50;4980627;28;20126;-61
2022/05/24 07:47:09;;;;;;;0.63;0.63;;;;;;;13.69;81.33;95280.63;4981279;28;20042;-61
2022/05/24 07:49:36;;;;;;;0.82;0.80;;;;;;;13.91;81.73;95278.22;4986180;28;20038;-61
2022/05/24 07:52:01;;;;;;;1.42;0.80;;;;;;;14.02;81.90;95275.16;4977876;28;20050;-60
2022/05/24 07:54:27;;;;;;;0.70;0.70;;;;;;;14.08;80.71;95288.72;4981871;28;20126;-61
2022/05/24 07:56:52;;;;;;;1.13;0.93;;;;;;;14.01;80.61;95289.41;4987857;28;20061;-60
2022/05/24 07:59:18;;;;;;;2.25;1.00;;;;;;;14.07;81.03;95289.72;4984313;28;20393;-60
2022/05/24 08:01:43;;;;;;;0.98;0.95;;;;;;;13.92;81.15;95285.16;4982698;28;20030;-61
2022/05/24 08:04:09;;;;;;;3.10;0.93;;;;;;;13.90;80.40;95285.31;4982136;28;20546;-61
2022/05/24 08:06:35;;;;;;;3.22;0.82;;;;;;;14.01;80.04;95289.41;4988749;28;20029;-61
2022/05/24 08:09:01;;;;;;;1.08;0.70;;;;;;;14.00;81.12;95298.34;4978481;28;20030;-60
2022/05/24 08:11:26;;;;;;;0.85;0.80;;;;;;;13.97;81.26;95298.69;4984704;28;20100;-61
2022/05/24 08:13:51;;;;;;;1.02;0.80;;;;;;;13.89;80.94;95288.16;4985382;28;20081;-61
2022/05/24 08:16:17;;;;;;;0.85;0.82;;;;;;;13.84;78.84;95290.50;4985172;28;20019;-61
2022/05/24 08:18:44;;;;;;;2.00;0.90;;;;;;;13.85;80.31;95290.31;4982227;28;20133;-61
2022/05/24 08:21:09;;;;;;;1.00;0.80;;;;;;;14.12;80.97;95293.47;4979855;28;20434;-61
2022/05/24 08:23:35;;;;;;;0.60;0.60;;;;;;;14.24;79.94;95293.91;4988777;28;20023;-61
2022/05/24 08:26:01;;;;;;;0.80;0.80;;;;;;;14.24;79.20;95285.97;4987040;28;20026;-61
2022/05/24 08:28:27;;;;;;;2.70;1.17;;;;;;;14.25;79.80;95295.56;4985672;28;20038;-61
2022/05/24 08:30:55;;;;;;;2.08;0.63;;;;;;;13.99;77.18;95299.34;4988000;28;20080;-60
2022/05/24 08:33:23;;;;;;;1.05;0.90;;;;;;;13.79;76.88;95298.09;4986952;28;20105;-61
2022/05/24 08:35:50;;;;;;;1.55;0.90;;;;;;;13.74;78.83;95290.72;4989723;28;20030;-60
2022/05/24 08:38:16;;;;;;;2.08;0.80;;;;;;;13.68;78.81;95288.72;4981389;28;20033;-60
2022/05/24 08:40:45;;;;;;;0.85;0.70;;;;;;;13.70;78.77;95289.38;4985343;28;20095;-61
2022/05/24 08:43:49;;;;;;;0.70;0.70;;;;;;;13.71;77.77;95289.22;4987172;28;20027;-60
2022/05/24 08:49:06;;;;;;;0.73;0.73;;;;;;;13.85;77.30;95297.44;4984457;28;20069;-61
2022/05/24 08:51:48;;;;;;;0.85;0.85;;;;;;;13.91;77.24;95304.69;4985268;28;20403;-60
2022/05/24 08:54:18;;;;;;;0.60;0.60;;;;;;;14.06;77.74;95301.31;4984943;28;20112;-61
2022/05/24 08:56:56;;;;;;;1.92;0.70;;;;;;;14.03;75.70;95292.69;4982721;28;20089;-61
2022/05/24 08:59:27;;;;;;;19.90;1.00;;;;;;;14.28;75.81;95287.28;4987681;28;20035;-61
2022/05/24 09:01:53;;;;;;;0.77;0.77;;;;;;;14.39;74.13;95287.88;4982553;28;20050;-61
2022/05/24 09:04:19;;;;;;;0.70;0.70;;;;;;;14.31;72.78;95294.88;4980811;28;20394;-60
2022/05/24 09:07:03;;;;;;;0.60;0.60;;;;;;;14.19;72.71;95290.97;4990700;28;20049;-61
2022/05/24 09:09:50;;;;;;;0.70;0.70;;;;;;;14.33;73.14;95298.19;4986589;28;20466;-60
2022/05/24 09:12:37;;;;;;;2.10;0.68;;;;;;;14.32;72.46;95293.88;4978156;28;20027;-60
2022/05/24 09:15:45;;;;;;;4.03;1.13;;;;;;;14.38;73.63;95299.47;4987583;28;20117;-61
2022/05/24 09:18:31;;;;;;;4.20;0.90;;;;;;;14.61;73.39;95299.50;4953451;28;20038;-61
2022/05/24 09:20:57;;;;;;;0.70;0.70;;;;;;;14.45;73.04;95295.13;4953573;28;20027;-60
2022/05/24 09:24:16;;;;;;;1.85;0.88;;;;;;;14.46;73.10;95292.31;4969664;28;20049;-60
2022/05/24 09:27:22;;;;;;;1.48;0.70;;;;;;;14.32;71.98;95293.88;4912914;29;20622;-61
2022/05/24 09:29:58;;;;;;;0.77;0.77;;;;;;;14.37;70.82;95296.00;4983925;28;20082;-60
2022/05/24 09:32:37;;;;;;;3.80;0.80;;;;;;;14.40;71.38;95289.53;4982009;28;20073;-61
2022/05/24 09:35:25;;;;;;;0.80;0.80;;;;;;;14.38;68.53;95295.00;4983923;28;20034;-61
2022/05/24 09:38:01;;;;;;;0.90;0.90;;;;;;;14.30;70.59;95303.00;4985285;28;20083;-61
2022/05/24 09:40:27;;;;;;;1.45;0.90;;;;;;;14.28;69.61;95300.53;4980013;28;20499;-61
2022/05/24 09:42:52;;;;;;;0.88;0.60;;;;;;;14.31;68.60;95294.03;4991044;28;20033;-60
2022/05/24 09:45:21;;;;;;;0.80;0.80;;;;;;;14.21;69.10;95291.63;4984061;28;20545;-61
2022/05/24 09:47:58;;;;;;;1.33;0.80;;;;;;;14.20;72.16;95292.63;4985608;28;20116;-60
2022/05/24 09:50:29;;;;;;;1.13;0.70;;;;;;;14.26;71.42;95297.25;4986958;28;20026;-61
2022/05/24 09:53:17;;;;;;;0.88;0.82;;;;;;;14.33;71.98;95300.81;4983097;28;20045;-61
2022/05/24 09:55:55;;;;;;;1.42;1.30;;;;;;;14.32;69.68;95306.28;4982863;28;20133;-61
2022/05/24 09:58:30;;;;;;;0.70;0.70;;;;;;;14.33;69.67;95306.13;4984446;28;20430;-61
2022/05/24 10:01:04;;;;;;;1.60;1.05;;;;;;;14.36;72.27;95298.81;4978678;28;20705;-61
2022/05/24 10:03:39;;;;;;;2.58;0.90;;;;;;;14.41;70.20;95305.25;4985546;28;20502;-61
2022/05/24 10:06:20;;;;;;;4.68;1.20;;;;;;;14.33;69.94;95297.34;4983808;28;20061;-60
2022/05/24 10:08:50;;;;;;;0.90;0.88;;;;;;;14.42;69.71;95300.75;4988398;28;20070;-60
2022/05/24 10:11:28;;;;;;;0.90;0.90;;;;;;;14.49;68.82;95301.72;4981238;28;20513;-60
2022/05/24 10:14:21;;;;;;;0.90;0.60;;;;;;;14.53;67.82;95302.19;4975583;28;20482;-61
2022/05/24 10:17:02;;;;;;;1.33;0.80;;;;;;;14.58;69.85;95300.66;4987606;28;20030;-60
2022/05/24 10:19:33;;;;;;;1.67;0.82;;;;;;;14.55;70.39;95298.38;4979972;28;20035;-61
2022/05/24 10:22:19;;;;;;;1.25;0.93;;;;;;;14.60;70.04;95293.34;4978140;28;20097;-61
2022/05/24 10:25:04;;;;;;;1.75;0.90;;;;;;;14.78;68.84;95297.56;4985551;28;20027;-61
2022/05/24 10:28:01;;;;;;;0.75;0.75;;;;;;;14.72;68.35;95290.34;4986357;28;20026;-60
2022/05/24 10:30:50;;;;;;;1.95;1.13;;;;;;;14.80;68.40;95294.72;4949687;28;20069;-61
2022/05/24 10:39:51;;;;;;;1.35;1.13;;;;;;;14.83;67.11;95287.25;4981839;28;20089;-61
2022/05/24 10:42:43;;;;;;;0.95;0.70;;;;;;;15.01;67.18;95278.16;4979645;28;20042;-60
2022/05/24 10:45:16;;;;;;;1.55;0.70;;;;;;;15.01;68.14;95280.81;4979614;28;20033;-61
2022/05/24 10:48:01;;;;;;;3.35;0.90;;;;;;;15.18;67.12;95279.66;4984417;28;20038;-61
2022/05/24 10:50:37;;;;;;;0.95;0.80;;;;;;;15.09;66.24;95286.03;4986576;28;20026;-61
2022/05/24 10:53:18;;;;;;;1.02;0.90;;;;;;;15.00;68.81;95282.63;4977614;28;20494;-61
2022/05/24 10:56:02;;;;;;;1.27;0.70;;;;;;;15.01;68.34;95281.63;4986277;28;20093;-61
2022/05/24 10:58:32;;;;;;;0.95;0.82;;;;;;;15.10;68.07;95281.56;4988339;28;20121;-61
2022/05/24 11:01:43;;;;;;;0.90;0.90;;;;;;;15.20;65.20;95276.81;4977863;28;20405;-61
2022/05/24 11:04:15;;;;;;;1.20;0.98;;;;;;;15.17;65.62;95278.00;4910812;29;20043;-61
2022/05/24 11:07:14;;;;;;;0.95;0.90;;;;;;;15.07;65.88;95273.97;4911233;29;20400;-61
2022/05/24 11:09:54;;;;;;;0.80;0.80;;;;;;;15.27;66.10;95267.16;4966570;28;20431;-61
2022/05/24 11:12:26;;;;;;;0.82;0.80;;;;;;;15.42;65.46;95269.81;4977674;28;20041;-61
2022/05/24 11:14:59;;;;;;;0.88;0.82;;;;;;;15.54;65.45;95258.72;4981504;28;20038;-61
2022/05/24 11:17:24;;;;;;;3.88;0.95;;;;;;;15.58;63.66;95266.13;4984386;28;20078;-60
2022/05/24 11:19:55;;;;;;;1.55;0.82;;;;;;;15.78;65.01;95268.22;4982096;28;20034;-61
2022/05/24 11:22:32;;;;;;;1.40;0.75;;;;;;;15.73;64.00;95266.13;4980424;28;20053;-60
2022/05/24 11:25:19;;;;;;;1.13;1.02;;;;;;;15.92;64.47;95258.63;4983300;28;20494;-61
2022/05/24 11:27:52;;;;;;;1.70;0.93;;;;;;;16.03;64.16;95249.34;4986604;28;20034;-61
2022/05/24 11:30:34;;;;;;;1.20;0.88;;;;;;;16.16;61.69;95252.16;4983257;28;20019;-61
2022/05/24 11:33:02;;;;;;;1.08;0.98;;;;;;;16.13;62.80;95257.81;4983343;28;20414;-61
2022/05/24 11:35:35;;;;;;;1.50;0.82;;;;;;;16.08;62.57;95251.47;4981827;28;20030;-60
2022/05/24 11:38:20;;;;;;;1.35;1.05;;;;;;;16.00;64.50;95250.53;4977150;28;20062;-60
2022/05/24 11:41:14;;;;;;;1.10;1.00;;;;;;;16.14;61.49;95248.03;4983430;28;20053;-61
2022/05/24 11:43:43;;;;;;;0.75;0.75;;;;;;;16.18;62.17;95244.84;4980036;28;20034;-61
2022/05/24 11:46:10;;;;;;;0.70;0.70;;;;;;;16.30;63.56;95236.34;4980725;28;20482;-60
2022/05/24 11:48:51;;;;;;;1.60;0.68;;;;;;;16.60;63.60;95237.06;4983144;28;20055;-60
2022/05/24 11:51:50;;;;;;;3.95;0.93;;;;;;;16.45;60.99;95238.94;4978549;28;20102;-60
2022/05/24 11:54:18;;;;;;;0.80;0.80;;;;;;;16.18;61.96;95244.84;4979438;28;20442;-61
2022/05/24 11:56:56;;;;;;;0.77;0.77;;;;;;;16.16;63.21;95241.53;4986726;28;20081;-60
2022/05/24 11:59:57;;;;;;;0.90;0.88;;;;;;;15.97;62.72;95240.28;4978347;28;20081;-61
2022/05/24 12:02:24;;;;;;;1.00;0.95;;;;;;;15.86;65.04;95244.22;4979324;28;20034;-61
2022/05/24 12:08:30;;;;;;;1.25;0.82;;;;;;;16.23;63.45;95235.47;4966337;28;20047;-61
2022/05/24 12:11:17;;;;;;;0.95;0.95;;;;;;;16.46;63.06;95229.97;4981557;28;20030;-61
2022/05/24 12:13:46;;;;;;;1.75;0.80;;;;;;;16.65;62.63;95230.34;4982056;28;20081;-60
2022/05/24 12:16:36;;;;;;;2.33;0.95;;;;;;;16.76;59.70;95221.88;4980789;28;20038;-60
2022/05/24 12:19:03;;;;;;;2.45;1.10;;;;;;;16.99;60.55;95215.53;4981222;28;20069;-61
2022/05/24 12:22:00;;;;;;;1.15;1.05;;;;;;;17.61;57.71;95208.50;4972408;28;20101;-60
2022/05/24 12:24:29;;;;;;;3.72;0.85;;;;;;;17.46;55.47;95208.63;4980948;28;20031;-61
2022/05/24 12:27:21;;;;;;;0.95;0.70;;;;;;;17.43;57.55;95205.53;4982188;28;20375;-60